Time;durP1;ratioP1;P1;durP2;ratioP2;P2;SDS_P1;SDS_P2;PMS_P1;PMS_P2;Temp;Humidity;BMP_temperature;BMP_pressure;BME280_temperature;BME280_humidity;BME280_pressure;Samples;Min_cycle;Max_cycle;Signal;HPM_P1;HPM_P2
2022/05/18 00:00:12;;;;;;;5.70;3.92;;;;;;;;;;5024090;28;20479;-52
2022/05/18 00:02:37;;;;;;;6.63;4.10;;;;;;;;;;5023533;28;20599;-51
2022/05/18 00:05:03;;;;;;;4.13;3.45;;;;;;;;;;5020911;28;20116;-52
2022/05/18 00:07:28;;;;;;;5.85;4.15;;;;;;;;;;5039799;28;20024;-52
2022/05/18 00:09:53;;;;;;;6.00;3.73;;;;;;;;;;5040325;28;20018;-52
2022/05/18 00:12:18;;;;;;;5.33;3.50;;;;;;;;;;5024652;28;20022;-51
2022/05/18 00:14:44;;;;;;;4.40;3.60;;;;;;;;;;5020219;28;20037;-52
2022/05/18 00:17:09;;;;;;;5.25;3.90;;;;;;;;;;5022758;28;20135;-51
2022/05/18 00:19:34;;;;;;;5.65;4.13;;;;;;;;;;5018867;28;20021;-52
2022/05/18 00:22:00;;;;;;;4.77;3.80;;;;;;;;;;5024491;28;20056;-53
2022/05/18 00:24:25;;;;;;;4.47;3.50;;;;;;;;;;5024666;28;20040;-51
2022/05/18 00:26:50;;;;;;;5.00;3.83;;;;;;;;;;5019874;28;20311;-52
2022/05/18 00:29:15;;;;;;;5.97;3.97;;;;;;;;;;5024577;28;20802;-51
2022/05/18 00:31:41;;;;;;;5.47;4.20;;;;;;;;;;5021734;28;20511;-56
2022/05/18 00:34:06;;;;;;;6.35;3.80;;;;;;;;;;5023341;28;20111;-51
2022/05/18 00:36:32;;;;;;;5.65;3.80;;;;;;;;;;5020216;28;20059;-51
2022/05/18 00:38:57;;;;;;;5.05;3.90;;;;;;;;;;5023174;28;20402;-52
2022/05/18 00:41:23;;;;;;;5.17;3.93;;;;;;;;;;5021576;28;20040;-50
2022/05/18 00:43:49;;;;;;;4.93;3.80;;;;;;;;;;5024283;28;20268;-52
2022/05/18 00:46:14;;;;;;;4.85;3.70;;;;;;;;;;5023575;28;20108;-52
2022/05/18 00:48:39;;;;;;;4.45;3.67;;;;;;;;;;5017705;28;20424;-51
2022/05/18 00:51:06;;;;;;;5.38;3.92;;;;;;;;;;5026320;28;20076;-54
2022/05/18 00:53:31;;;;;;;4.10;3.65;;;;;;;;;;5040831;28;20026;-52
2022/05/18 00:56:07;;;;;;;5.03;3.65;;;;;;;;;;5036646;28;20095;-51
2022/05/18 00:58:43;;;;;;;5.28;3.60;;;;;;;;;;5035381;28;20027;-50
2022/05/18 01:01:08;;;;;;;4.60;4.00;;;;;;;;;;5034684;28;20037;-52
2022/05/18 01:03:39;;;;;;;4.53;3.60;;;;;;;;;;5038149;28;20021;-52
2022/05/18 01:06:08;;;;;;;4.63;3.55;;;;;;;;;;5020335;28;20099;-52
2022/05/18 01:08:54;;;;;;;4.85;3.78;;;;;;;;;;5038728;28;20095;-51
2022/05/18 01:11:19;;;;;;;4.68;3.45;;;;;;;;;;5021417;28;20051;-52
2022/05/18 01:13:45;;;;;;;4.97;3.92;;;;;;;;;;5036828;28;20483;-51
2022/05/18 01:16:10;;;;;;;5.22;3.58;;;;;;;;;;5019120;28;20026;-49
2022/05/18 01:18:35;;;;;;;4.97;3.97;;;;;;;;;;5015637;28;20064;-53
2022/05/18 01:21:00;;;;;;;5.60;3.37;;;;;;;;;;5037786;28;20029;-52
2022/05/18 01:23:41;;;;;;;4.30;3.67;;;;;;;;;;5035875;28;20056;-51
2022/05/18 01:26:06;;;;;;;5.05;3.70;;;;;;;;;;5022234;28;20589;-52
2022/05/18 01:28:33;;;;;;;3.73;3.20;;;;;;;;;;5019786;28;20554;-51
2022/05/18 01:30:58;;;;;;;4.38;3.47;;;;;;;;;;5021380;28;20025;-50
2022/05/18 01:33:24;;;;;;;6.13;3.70;;;;;;;;;;5021434;28;20017;-52
2022/05/18 01:35:49;;;;;;;5.47;3.60;;;;;;;;;;5040512;28;20041;-51
2022/05/18 01:38:14;;;;;;;4.20;3.40;;;;;;;;;;5020817;28;20054;-51
2022/05/18 01:40:49;;;;;;;5.18;3.55;;;;;;;;;;5037467;28;20021;-51
2022/05/18 01:43:21;;;;;;;5.25;3.70;;;;;;;;;;5022901;28;20023;-52
2022/05/18 01:45:53;;;;;;;4.32;3.50;;;;;;;;;;5030534;28;20013;-51
2022/05/18 01:48:19;;;;;;;4.63;3.58;;;;;;;;;;5005060;28;20026;-52
2022/05/18 01:50:44;;;;;;;4.53;2.83;;;;;;;;;;5014890;28;20480;-51
2022/05/18 01:53:09;;;;;;;4.80;3.73;;;;;;;;;;5021962;28;20024;-51
2022/05/18 01:55:35;;;;;;;4.03;3.03;;;;;;;;;;5021691;28;20028;-52
2022/05/18 01:58:00;;;;;;;4.97;3.47;;;;;;;;;;5022113;28;20265;-51
2022/05/18 02:00:26;;;;;;;4.82;3.58;;;;;;;;;;5016864;28;20456;-52
2022/05/18 02:02:51;;;;;;;4.47;3.30;;;;;;;;;;5022044;28;20030;-51
2022/05/18 02:05:16;;;;;;;4.00;3.47;;;;;;;;;;5017883;28;20026;-50
2022/05/18 02:07:41;;;;;;;4.77;3.40;;;;;;;;;;5019838;28;20264;-50
2022/05/18 02:10:07;;;;;;;4.33;3.17;;;;;;;;;;5020943;28;20144;-51
2022/05/18 02:12:33;;;;;;;4.47;3.17;;;;;;;;;;5020088;28;20032;-52
2022/05/18 02:14:58;;;;;;;4.80;3.60;;;;;;;;;;5016890;28;20180;-51
2022/05/18 02:17:24;;;;;;;3.72;3.05;;;;;;;;;;5016834;28;20476;-51
2022/05/18 02:19:49;;;;;;;5.10;3.50;;;;;;;;;;5013882;28;20013;-51
2022/05/18 02:22:14;;;;;;;3.70;3.10;;;;;;;;;;5021016;28;20021;-51
2022/05/18 02:24:39;;;;;;;3.87;3.23;;;;;;;;;;5021135;28;20163;-51
2022/05/18 02:27:05;;;;;;;4.30;3.37;;;;;;;;;;5023663;28;20009;-50
2022/05/18 02:29:30;;;;;;;4.07;3.40;;;;;;;;;;5018330;28;20053;-50
2022/05/18 02:31:55;;;;;;;4.78;3.25;;;;;;;;;;5017077;28;20280;-51
2022/05/18 02:34:20;;;;;;;4.27;3.50;;;;;;;;;;5020501;28;20025;-51
2022/05/18 02:36:46;;;;;;;4.63;3.23;;;;;;;;;;5016620;28;20048;-50
2022/05/18 02:39:11;;;;;;;4.22;3.40;;;;;;;;;;5018075;28;20285;-51
2022/05/18 02:41:36;;;;;;;3.93;2.90;;;;;;;;;;5022066;28;20600;-50
2022/05/18 02:44:01;;;;;;;3.43;3.10;;;;;;;;;;5023747;28;20128;-51
2022/05/18 02:46:27;;;;;;;4.40;2.80;;;;;;;;;;5020910;28;21069;-51
2022/05/18 02:48:52;;;;;;;3.43;2.80;;;;;;;;;;5017128;28;20256;-50
2022/05/18 02:51:17;;;;;;;3.90;3.13;;;;;;;;;;5016669;28;20374;-50
2022/05/18 02:53:42;;;;;;;3.83;3.20;;;;;;;;;;5017545;28;20014;-51
2022/05/18 02:56:08;;;;;;;3.47;3.17;;;;;;;;;;5018582;28;20029;-50
2022/05/18 02:58:34;;;;;;;3.53;3.00;;;;;;;;;;5016189;28;20022;-51
2022/05/18 03:01:00;;;;;;;3.47;3.08;;;;;;;;;;5019449;28;20029;-50
2022/05/18 03:03:26;;;;;;;3.28;2.83;;;;;;;;;;5021723;28;20028;-50
2022/05/18 03:05:51;;;;;;;4.40;3.17;;;;;;;;;;5023729;28;20021;-51
2022/05/18 03:08:16;;;;;;;4.37;3.20;;;;;;;;;;5017034;28;20045;-51
2022/05/18 03:10:42;;;;;;;3.93;3.00;;;;;;;;;;5018570;28;20087;-51
2022/05/18 03:13:07;;;;;;;3.75;3.05;;;;;;;;;;5014617;28;20053;-51
2022/05/18 03:15:33;;;;;;;4.53;2.80;;;;;;;;;;5018609;28;20035;-51
2022/05/18 03:17:59;;;;;;;3.97;3.17;;;;;;;;;;5018636;28;20654;-51
2022/05/18 03:25:52;;;;;;;3.67;2.70;;;;;;;;;;5019522;28;20109;-51
2022/05/18 03:28:17;;;;;;;3.73;2.80;;;;;;;;;;5020266;28;20120;-51
2022/05/18 03:30:42;;;;;;;3.73;2.90;;;;;;;;;;5023502;28;20307;-52
2022/05/18 03:33:08;;;;;;;3.77;2.73;;;;;;;;;;5020851;28;20283;-51
2022/05/18 03:35:33;;;;;;;3.50;2.83;;;;;;;;;;5017692;28;20098;-51
2022/05/18 03:37:58;;;;;;;3.17;2.83;;;;;;;;;;5018157;28;20029;-51
2022/05/18 03:40:24;;;;;;;3.30;2.65;;;;;;;;;;5016348;28;20770;-50
2022/05/18 03:42:50;;;;;;;4.22;2.80;;;;;;;;;;5018649;28;20032;-51
2022/05/18 03:45:15;;;;;;;3.13;2.60;;;;;;;;;;5018066;28;20029;-51
2022/05/18 03:47:42;;;;;;;3.83;2.83;;;;;;;;;;5017654;28;20276;-51
2022/05/18 03:50:07;;;;;;;3.65;3.10;;;;;;;;;;5017538;28;20108;-51
2022/05/18 03:52:32;;;;;;;3.20;2.78;;;;;;;;;;5018977;28;20109;-49
2022/05/18 03:54:57;;;;;;;3.20;2.70;;;;;;;;;;5034638;28;20208;-51
2022/05/18 03:57:23;;;;;;;3.97;3.30;;;;;;;;;;5016840;28;20097;-51
2022/05/18 03:59:48;;;;;;;4.23;2.80;;;;;;;;;;5023666;28;20118;-50
2022/05/18 04:02:13;;;;;;;5.10;3.30;;;;;;;;;;5017929;28;20248;-50
2022/05/18 04:04:38;;;;;;;3.83;3.27;;;;;;;;;;5019346;28;20017;-51
2022/05/18 04:07:04;;;;;;;4.83;3.20;;;;;;;;;;5016628;28;20172;-51
2022/05/18 04:09:29;;;;;;;5.80;3.40;;;;;;;;;;5002926;28;20026;-51
2022/05/18 04:11:54;;;;;;;4.77;3.27;;;;;;;;;;5002677;28;20297;-51
2022/05/18 04:14:19;;;;;;;4.63;3.00;;;;;;;;;;5008086;28;20481;-52
2022/05/18 04:16:48;;;;;;;4.10;3.13;;;;;;;;;;5014792;28;20299;-50
2022/05/18 04:19:14;;;;;;;4.40;3.33;;;;;;;;;;5013380;28;20032;-52
2022/05/18 04:21:39;;;;;;;5.00;3.30;;;;;;;;;;5018998;28;20029;-53
2022/05/18 04:24:05;;;;;;;4.60;3.15;;;;;;;;;;5018987;28;20508;-52
2022/05/18 04:26:30;;;;;;;4.70;3.10;;;;;;;;;;5017884;28;20071;-51
2022/05/18 04:28:55;;;;;;;4.00;3.17;;;;;;;;;;5021291;28;20061;-51
2022/05/18 04:31:20;;;;;;;4.70;3.40;;;;;;;;;;5018276;28;20306;-51
2022/05/18 04:33:45;;;;;;;3.93;3.50;;;;;;;;;;5020365;28;20097;-51
2022/05/18 04:36:11;;;;;;;4.63;3.10;;;;;;;;;;5018193;28;20021;-51
2022/05/18 04:38:36;;;;;;;4.18;2.97;;;;;;;;;;5020520;28;20108;-51
2022/05/18 04:41:01;;;;;;;4.10;3.10;;;;;;;;;;5019238;28;20048;-53
2022/05/18 04:43:27;;;;;;;4.82;3.33;;;;;;;;;;5020278;28;20071;-51
2022/05/18 04:45:55;;;;;;;3.78;3.38;;;;;;;;;;5021830;28;20010;-51
2022/05/18 04:48:20;;;;;;;4.60;3.47;;;;;;;;;;5021431;28;20471;-52
2022/05/18 04:50:45;;;;;;;6.18;3.58;;;;;;;;;;5021046;28;20104;-52
2022/05/18 04:53:11;;;;;;;4.50;3.75;;;;;;;;;;5019369;28;20099;-52
2022/05/18 04:55:36;;;;;;;5.20;4.10;;;;;;;;;;5023658;28;20505;-51
2022/05/18 04:58:01;;;;;;;4.93;4.10;;;;;;;;;;5024362;28;20025;-52
2022/05/18 05:00:27;;;;;;;4.95;4.05;;;;;;;;;;5019925;28;20067;-52
2022/05/18 05:02:56;;;;;;;5.50;4.07;;;;;;;;;;5021525;28;20013;-52
2022/05/18 05:05:21;;;;;;;7.03;4.03;;;;;;;;;;5022899;28;20060;-52
2022/05/18 05:07:47;;;;;;;5.13;4.28;;;;;;;;;;5018850;28;20056;-51
2022/05/18 05:10:12;;;;;;;4.77;3.80;;;;;;;;;;5034451;28;21208;-51
2022/05/18 05:12:37;;;;;;;5.15;4.00;;;;;;;;;;5017789;28;20821;-51
2022/05/18 05:15:03;;;;;;;5.73;4.60;;;;;;;;;;5017870;28;20136;-52
2022/05/18 05:17:29;;;;;;;5.72;4.57;;;;;;;;;;5020880;28;20048;-52
2022/05/18 05:19:54;;;;;;;5.25;4.40;;;;;;;;;;5019394;28;20029;-51
2022/05/18 05:22:19;;;;;;;7.53;4.90;;;;;;;;;;5016301;28;20623;-52
2022/05/18 05:24:44;;;;;;;6.53;4.73;;;;;;;;;;5017309;28;20385;-52
2022/05/18 05:27:10;;;;;;;6.50;4.60;;;;;;;;;;5019095;28;20022;-52
2022/05/18 05:29:35;;;;;;;6.57;5.05;;;;;;;;;;5016196;28;20508;-51
2022/05/18 05:32:07;;;;;;;6.70;5.30;;;;;;;;;;5013052;28;20048;-52
2022/05/18 05:34:33;;;;;;;6.32;4.88;;;;;;;;;;5023816;28;20041;-51
2022/05/18 05:36:58;;;;;;;6.35;5.43;;;;;;;;;;5033354;28;20018;-53
2022/05/18 05:39:23;;;;;;;6.03;5.13;;;;;;;;;;5021406;28;20021;-51
2022/05/18 05:41:48;;;;;;;6.10;5.17;;;;;;;;;;5020651;28;20025;-52
2022/05/18 05:44:14;;;;;;;6.53;5.47;;;;;;;;;;5023038;28;20021;-51
2022/05/18 05:46:39;;;;;;;6.30;5.03;;;;;;;;;;5019087;28;20025;-52
2022/05/18 05:49:04;;;;;;;6.80;5.03;;;;;;;;;;5016290;28;20079;-52
2022/05/18 05:51:29;;;;;;;6.13;5.43;;;;;;;;;;5021882;28;20095;-52
2022/05/18 05:53:55;;;;;;;6.10;5.07;;;;;;;;;;5019568;28;20347;-52
2022/05/18 05:56:20;;;;;;;6.07;5.27;;;;;;;;;;5023052;28;20308;-53
2022/05/18 05:58:47;;;;;;;6.75;4.72;;;;;;;;;;5018327;28;20325;-52
2022/05/18 06:01:13;;;;;;;7.38;5.20;;;;;;;;;;5019537;28;20029;-50
2022/05/18 06:03:38;;;;;;;5.55;4.95;;;;;;;;;;5019263;28;20014;-50
2022/05/18 06:06:04;;;;;;;5.95;5.30;;;;;;;;;;5022203;28;20021;-49
2022/05/18 06:08:30;;;;;;;6.13;4.88;;;;;;;;;;5011310;28;20104;-51
2022/05/18 06:10:55;;;;;;;5.38;4.60;;;;;;;;;;5012547;28;20463;-52
2022/05/18 06:13:20;;;;;;;5.10;4.20;;;;;;;;;;5007819;28;20021;-51
2022/05/18 06:15:47;;;;;;;4.87;4.37;;;;;;;;;;5006170;28;20033;-52
2022/05/18 06:18:12;;;;;;;6.30;4.50;;;;;;;;;;5013168;28;20017;-51
2022/05/18 06:20:38;;;;;;;5.50;4.30;;;;;;;;;;5023574;28;20022;-51
2022/05/18 06:23:06;;;;;;;4.87;4.37;;;;;;;;;;5022099;28;20025;-51
2022/05/18 06:25:31;;;;;;;4.93;4.43;;;;;;;;;;5018304;28;20268;-50
2022/05/18 06:27:56;;;;;;;4.20;3.80;;;;;;;;;;5009039;28;20036;-51
2022/05/18 06:30:22;;;;;;;6.60;4.27;;;;;;;;;;5008110;28;20051;-51
2022/05/18 06:32:47;;;;;;;6.93;4.50;;;;;;;;;;5014010;28;20026;-52
2022/05/18 06:35:12;;;;;;;5.63;4.00;;;;;;;;;;5006401;28;20087;-52
2022/05/18 06:37:38;;;;;;;4.72;4.05;;;;;;;;;;5012481;28;20014;-52
2022/05/18 06:40:05;;;;;;;5.03;4.20;;;;;;;;;;5003301;28;20053;-52
2022/05/18 06:42:30;;;;;;;4.25;3.80;;;;;;;;;;5006267;28;20026;-53
2022/05/18 06:44:55;;;;;;;3.97;3.57;;;;;;;;;;5009559;28;20112;-52
2022/05/18 06:47:20;;;;;;;4.73;3.77;;;;;;;;;;5006661;28;20779;-51
2022/05/18 06:49:47;;;;;;;4.03;3.40;;;;;;;;;;5009950;28;20261;-51
2022/05/18 06:52:12;;;;;;;5.05;3.97;;;;;;;;;;5013521;28;20048;-51
2022/05/18 06:54:38;;;;;;;5.15;3.65;;;;;;;;;;5009079;28;20131;-53
2022/05/18 06:57:03;;;;;;;5.07;3.90;;;;;;;;;;5009667;28;20080;-52
2022/05/18 06:59:29;;;;;;;4.22;3.42;;;;;;;;;;5009681;28;20041;-52
2022/05/18 07:01:54;;;;;;;4.97;3.83;;;;;;;;;;5005497;28;20087;-50
2022/05/18 07:04:19;;;;;;;6.00;3.73;;;;;;;;;;5003069;28;20026;-51
2022/05/18 07:06:45;;;;;;;4.70;3.37;;;;;;;;;;5002713;28;20272;-51
2022/05/18 07:09:14;;;;;;;4.40;3.22;;;;;;;;;;5005221;28;20803;-51
2022/05/18 07:11:39;;;;;;;4.10;3.58;;;;;;;;;;5003679;28;20471;-51
2022/05/18 07:14:05;;;;;;;4.57;3.50;;;;;;;;;;5005929;28;20116;-51
2022/05/18 07:16:30;;;;;;;4.45;3.47;;;;;;;;;;5004457;28;20018;-51
2022/05/18 07:18:55;;;;;;;4.45;3.63;;;;;;;;;;5020445;28;20025;-51
2022/05/18 07:21:21;;;;;;;6.13;4.32;;;;;;;;;;5019818;28;20122;-51
2022/05/18 07:23:46;;;;;;;4.95;3.55;;;;;;;;;;5022835;28;20045;-49
2022/05/18 07:26:12;;;;;;;4.28;3.15;;;;;;;;;;5019181;28;20018;-51
2022/05/18 07:28:39;;;;;;;4.50;3.37;;;;;;;;;;5020758;28;20280;-52
2022/05/18 07:31:05;;;;;;;3.92;3.05;;;;;;;;;;5032221;28;20037;-52
2022/05/18 07:33:30;;;;;;;3.65;3.08;;;;;;;;;;5012319;28;20178;-52
2022/05/18 07:35:55;;;;;;;4.63;3.57;;;;;;;;;;5016705;28;20045;-52
2022/05/18 07:38:21;;;;;;;4.43;3.72;;;;;;;;;;5017549;28;20271;-52
2022/05/18 07:40:48;;;;;;;3.40;3.08;;;;;;;;;;5019725;28;20550;-52
2022/05/18 07:43:13;;;;;;;4.63;3.50;;;;;;;;;;5020443;28;20053;-52
2022/05/18 07:45:38;;;;;;;4.33;3.40;;;;;;;;;;5020939;28;20508;-51
2022/05/18 07:48:04;;;;;;;4.03;3.25;;;;;;;;;;5015159;28;20272;-51
2022/05/18 07:50:29;;;;;;;4.00;3.55;;;;;;;;;;5019841;28;20121;-50
2022/05/18 07:52:58;;;;;;;4.67;3.40;;;;;;;;;;5017926;28;20448;-50
2022/05/18 07:55:24;;;;;;;3.97;3.10;;;;;;;;;;5016791;28;21070;-51
2022/05/18 07:57:49;;;;;;;3.88;3.10;;;;;;;;;;5019169;28;20155;-50
2022/05/18 08:00:15;;;;;;;3.63;3.17;;;;;;;;;;5019723;28;20017;-50
2022/05/18 08:02:40;;;;;;;3.92;3.53;;;;;;;;;;5021236;28;20270;-51
2022/05/18 08:05:06;;;;;;;4.93;3.50;;;;;;;;;;5026909;28;20017;-51
2022/05/18 08:07:31;;;;;;;3.97;3.42;;;;;;;;;;5026375;28;20310;-51
2022/05/18 08:15:24;;;;;;;4.22;3.38;;;;;;;;;;5026643;28;20313;-50
2022/05/18 08:17:49;;;;;;;3.90;3.37;;;;;;;;;;5025015;28;20014;-50
2022/05/18 08:20:15;;;;;;;4.30;3.45;;;;;;;;;;5025784;28;20318;-52
2022/05/18 08:22:41;;;;;;;4.50;3.30;;;;;;;;;;5022440;28;20022;-52
2022/05/18 08:25:06;;;;;;;4.93;3.40;;;;;;;;;;5024564;28;20108;-52
2022/05/18 08:27:31;;;;;;;3.17;2.85;;;;;;;;;;5025438;28;20017;-52
2022/05/18 08:30:01;;;;;;;5.07;3.83;;;;;;;;;;5023721;28;20055;-51
2022/05/18 08:32:26;;;;;;;3.70;3.38;;;;;;;;;;5020715;28;20105;-51
2022/05/18 08:34:51;;;;;;;4.20;3.60;;;;;;;;;;5018887;28;20029;-50
2022/05/18 08:37:16;;;;;;;3.93;3.50;;;;;;;;;;5024653;28;20256;-51
2022/05/18 08:39:42;;;;;;;3.77;3.30;;;;;;;;;;5020687;28;20029;-50
2022/05/18 08:42:08;;;;;;;4.00;3.60;;;;;;;;;;5022403;28;20270;-51
2022/05/18 08:44:34;;;;;;;5.43;3.78;;;;;;;;;;5020376;28;20079;-52
2022/05/18 08:47:09;;;;;;;4.18;3.67;;;;;;;;;;5020428;28;20090;-50
2022/05/18 08:49:39;;;;;;;4.00;3.60;;;;;;;;;;5020611;28;20253;-51
2022/05/18 08:52:13;;;;;;;3.58;3.28;;;;;;;;;;5022715;28;20123;-52
2022/05/18 08:54:54;;;;;;;3.40;2.92;;;;;;;;;;5018960;28;20017;-50
2022/05/18 08:57:21;;;;;;;8.30;4.10;;;;;;;;;;5017928;28;20662;-51
2022/05/18 08:59:47;;;;;;;4.75;3.58;;;;;;;;;;5033748;28;20036;-51
2022/05/18 09:02:15;;;;;;;4.55;3.25;;;;;;;;;;5036219;28;20021;-51
2022/05/18 09:04:52;;;;;;;3.65;3.30;;;;;;;;;;5014506;28;20047;-51
2022/05/18 09:07:18;;;;;;;3.88;3.08;;;;;;;;;;5022013;28;20036;-51
2022/05/18 09:10:14;;;;;;;5.80;3.40;;;;;;;;;;5019163;28;20029;-52
2022/05/18 09:12:40;;;;;;;6.03;3.72;;;;;;;;;;5014591;28;20142;-51
2022/05/18 09:15:07;;;;;;;7.28;3.42;;;;;;;;;;5016757;28;20040;-50
2022/05/18 09:17:37;;;;;;;3.83;3.42;;;;;;;;;;5034061;28;20033;-50
2022/05/18 09:20:06;;;;;;;4.53;3.78;;;;;;;;;;5022137;28;20029;-49
2022/05/18 09:22:47;;;;;;;4.00;3.60;;;;;;;;;;5040054;28;20017;-51
2022/05/18 09:25:18;;;;;;;5.40;3.83;;;;;;;;;;5017149;28;20500;-50
2022/05/18 09:27:50;;;;;;;4.70;3.28;;;;;;;;;;5017692;28;20021;-51
2022/05/18 09:30:15;;;;;;;5.85;3.47;;;;;;;;;;5024041;28;20072;-50
2022/05/18 09:33:01;;;;;;;6.88;3.80;;;;;;;;;;5022359;28;20009;-51
2022/05/18 09:35:26;;;;;;;6.22;3.85;;;;;;;;;;5021449;28;20364;-51
2022/05/18 09:38:02;;;;;;;6.70;3.70;;;;;;;;;;5020819;28;20481;-50
2022/05/18 09:40:28;;;;;;;5.63;3.60;;;;;;;;;;5031369;28;20400;-50
2022/05/18 09:42:58;;;;;;;5.13;3.63;;;;;;;;;;5004794;28;20010;-51
2022/05/18 09:45:25;;;;;;;4.72;3.45;;;;;;;;;;5006829;28;20029;-51
2022/05/18 09:47:50;;;;;;;5.38;3.67;;;;;;;;;;5009846;28;20017;-51
2022/05/18 09:50:16;;;;;;;5.40;3.30;;;;;;;;;;5007476;28;20068;-52
2022/05/18 09:52:42;;;;;;;4.97;3.17;;;;;;;;;;5004480;28;20490;-52
2022/05/18 09:55:08;;;;;;;6.22;3.47;;;;;;;;;;4998901;28;20801;-52
2022/05/18 09:57:43;;;;;;;4.05;3.25;;;;;;;;;;5003998;28;20024;-52
2022/05/18 10:00:08;;;;;;;7.80;3.30;;;;;;;;;;5002791;28;20022;-52
2022/05/18 10:08:13;;;;;;;4.47;3.05;;;;;;;;;;5013876;28;20064;-52
2022/05/18 10:10:38;;;;;;;4.70;3.17;;;;;;;;;;5010605;28;20777;-53
2022/05/18 10:13:11;;;;;;;4.57;2.95;;;;;;;;;;5018774;28;20014;-52
2022/05/18 10:15:47;;;;;;;6.10;3.17;;;;;;;;;;5035443;28;20033;-53
2022/05/18 10:18:19;;;;;;;3.50;2.85;;;;;;;;;;5017418;28;20421;-52
2022/05/18 10:21:04;;;;;;;5.47;2.95;;;;;;;;;;5017518;28;20095;-53
2022/05/18 10:23:29;;;;;;;4.30;2.90;;;;;;;;;;5007885;28;20100;-52
2022/05/18 10:25:54;;;;;;;3.90;2.90;;;;;;;;;;5008678;28;20598;-52
2022/05/18 10:28:20;;;;;;;4.22;2.80;;;;;;;;;;5018052;28;20556;-51
2022/05/18 10:30:59;;;;;;;3.83;2.53;;;;;;;;;;5019676;28;20346;-53
2022/05/18 10:33:31;;;;;;;3.88;2.65;;;;;;;;;;5021155;28;20013;-52
2022/05/18 10:35:57;;;;;;;3.72;2.50;;;;;;;;;;5017382;28;20048;-52
2022/05/18 10:38:26;;;;;;;5.13;2.50;;;;;;;;;;5020189;28;20021;-51
2022/05/18 10:40:52;;;;;;;4.80;2.60;;;;;;;;;;5019176;28;20022;-52
2022/05/18 10:43:17;;;;;;;7.50;2.35;;;;;;;;;;5032041;28;20093;-51
2022/05/18 10:45:43;;;;;;;5.17;2.50;;;;;;;;;;5019348;28;20120;-52
2022/05/18 10:48:18;;;;;;;4.50;2.22;;;;;;;;;;5036275;28;20104;-51
2022/05/18 10:50:43;;;;;;;5.68;2.92;;;;;;;;;;5020894;28;20488;-52
2022/05/18 10:53:17;;;;;;;6.50;2.90;;;;;;;;;;5020312;28;20014;-51
2022/05/18 10:56:00;;;;;;;6.78;2.50;;;;;;;;;;5020094;28;20112;-51
2022/05/18 10:58:38;;;;;;;7.55;2.70;;;;;;;;;;5021327;28;20060;-51
2022/05/18 11:01:09;;;;;;;7.10;2.17;;;;;;;;;;5018566;28;20017;-51
2022/05/18 11:03:34;;;;;;;4.05;1.77;;;;;;;;;;5017208;28;20112;-51
2022/05/18 11:06:02;;;;;;;4.60;1.90;;;;;;;;;;5019307;28;20536;-51
2022/05/18 11:08:30;;;;;;;3.67;2.03;;;;;;;;;;5016569;28;20523;-51
2022/05/18 11:11:08;;;;;;;4.10;1.88;;;;;;;;;;5018772;28;20021;-54
2022/05/18 11:13:39;;;;;;;4.45;1.90;;;;;;;;;;5020659;28;20014;-51
2022/05/18 11:16:15;;;;;;;3.63;1.95;;;;;;;;;;5017141;28;20538;-51
2022/05/18 11:18:52;;;;;;;3.28;1.73;;;;;;;;;;5036660;28;20017;-51
2022/05/18 11:21:44;;;;;;;3.45;1.70;;;;;;;;;;5019500;28;20033;-52
2022/05/18 11:24:17;;;;;;;4.43;1.63;;;;;;;;;;5018648;28;20037;-53
2022/05/18 11:26:54;;;;;;;2.03;1.45;;;;;;;;;;5020573;28;20025;-51
2022/05/18 11:29:29;;;;;;;3.35;1.60;;;;;;;;;;5023104;28;20053;-51
2022/05/18 11:31:58;;;;;;;3.20;1.70;;;;;;;;;;5014660;28;20036;-51
2022/05/18 11:34:32;;;;;;;2.97;1.10;;;;;;;;;;5032358;28;20227;-51
2022/05/18 11:37:21;;;;;;;2.97;1.40;;;;;;;;;;5022272;28;20794;-52
2022/05/18 11:39:50;;;;;;;2.08;1.38;;;;;;;;;;5019949;28;20100;-51
2022/05/18 11:42:16;;;;;;;;;;;;;;;;;;5048862;28;20596;-51
2022/05/18 11:44:45;;;;;;;3.75;1.63;;;;;;;;;;5018325;28;20548;-51
2022/05/18 11:47:14;;;;;;;2.67;1.70;;;;;;;;;;5023810;28;20026;-52
2022/05/18 11:50:15;;;;;;;9.65;5.63;;;;;;;;;;5044210;28;20021;-51
2022/05/18 11:52:46;;;;;;;16.73;10.95;;;;;;;;;;5020204;28;20029;-52
2022/05/18 11:55:11;;;;;;;11.73;6.90;;;;;;;;;;5023070;28;20116;-52
2022/05/18 11:57:55;;;;;;;7.40;4.55;;;;;;;;;;5024859;28;20097;-50
2022/05/18 12:03:08;;;;;;;5.00;3.03;;;;;;;;;;5022264;28;20076;-51
2022/05/18 12:05:49;;;;;;;3.92;2.65;;;;;;;;;;5027178;28;20014;-51
2022/05/18 12:08:25;;;;;;;3.88;1.92;;;;;;;;;;5025751;28;20026;-51
2022/05/18 12:10:51;;;;;;;3.38;1.90;;;;;;;;;;5026367;28;20036;-51
2022/05/18 12:13:34;;;;;;;11.35;7.55;;;;;;;;;;5025840;28;20020;-51
2022/05/18 12:16:00;;;;;;;25.15;18.38;;;;;;;;;;5012116;28;20030;-52
2022/05/18 12:18:31;;;;;;;12.87;10.13;;;;;;;;;;5009095;28;20334;-51
2022/05/18 12:21:05;;;;;;;11.05;8.38;;;;;;;;;;5007164;28;20018;-52
2022/05/18 12:23:32;;;;;;;17.60;11.48;;;;;;;;;;5026813;28;20128;-52
2022/05/18 12:25:57;;;;;;;11.02;8.25;;;;;;;;;;5031285;28;20022;-51
2022/05/18 12:28:23;;;;;;;11.90;7.88;;;;;;;;;;5021628;28;20411;-51
2022/05/18 12:30:48;;;;;;;10.13;7.43;;;;;;;;;;5013127;28;20531;-51
2022/05/18 12:33:13;;;;;;;12.03;7.60;;;;;;;;;;5011384;28;20752;-50
2022/05/18 12:35:57;;;;;;;8.97;6.80;;;;;;;;;;5007923;28;20044;-51
2022/05/18 12:38:27;;;;;;;12.10;8.30;;;;;;;;;;5008911;28;20018;-52
2022/05/18 12:40:52;;;;;;;27.48;16.17;;;;;;;;;;5007035;28;20018;-51
2022/05/18 12:43:53;;;;;;;18.80;12.68;;;;;;;;;;5009003;28;20554;-51
2022/05/18 12:46:22;;;;;;;19.48;13.77;;;;;;;;;;4962379;28;20026;-53
2022/05/18 12:49:20;;;;;;;23.38;15.15;;;;;;;;;;5001182;28;20435;-52
2022/05/18 12:51:58;;;;;;;34.28;21.52;;;;;;;;;;5017901;28;20068;-54
2022/05/18 12:54:33;;;;;;;40.13;24.30;;;;;;;;;;5015528;28;20017;-51
2022/05/18 12:57:04;;;;;;;90.47;53.45;;;;;;;;;;5023810;28;20030;-53
2022/05/18 12:59:30;;;;;;;28.35;17.70;;;;;;;;;;5019206;28;20032;-51
2022/05/18 13:02:00;;;;;;;27.33;19.00;;;;;;;;;;5038043;28;20025;-54
2022/05/18 13:04:25;;;;;;;18.85;11.35;;;;;;;;;;5021124;28;20021;-52
2022/05/18 13:06:54;;;;;;;16.80;12.93;;;;;;;;;;5016344;28;20096;-53
2022/05/18 13:09:29;;;;;;;21.23;15.25;;;;;;;;;;5019834;28;20035;-51
2022/05/18 13:11:55;;;;;;;13.80;8.00;;;;;;;;;;5023902;28;20065;-51
2022/05/18 13:14:35;;;;;;;12.32;9.02;;;;;;;;;;5022919;28;20051;-51
2022/05/18 13:17:11;;;;;;;11.18;7.65;;;;;;;;;;5018523;28;20048;-51
2022/05/18 13:19:37;;;;;;;8.50;6.25;;;;;;;;;;5019432;28;20045;-51
2022/05/18 13:22:11;;;;;;;6.15;4.50;;;;;;;;;;5022988;28;20053;-52
2022/05/18 13:24:40;;;;;;;5.78;4.22;;;;;;;;;;5025050;28;20057;-52
2022/05/18 13:27:10;;;;;;;7.43;5.07;;;;;;;;;;5035338;28;20108;-51
2022/05/18 13:29:35;;;;;;;7.43;3.95;;;;;;;;;;5037240;28;20076;-50
2022/05/18 13:32:02;;;;;;;7.68;4.03;;;;;;;;;;5034409;28;20490;-51
2022/05/18 13:34:37;;;;;;;7.47;4.03;;;;;;;;;;5035085;28;20013;-51
2022/05/18 13:37:03;;;;;;;5.00;3.90;;;;;;;;;;5019577;28;20068;-51
2022/05/18 13:39:33;;;;;;;4.40;3.00;;;;;;;;;;5020833;28;20070;-51
2022/05/18 13:41:58;;;;;;;3.63;2.45;;;;;;;;;;5017271;28;20128;-51
2022/05/18 13:44:24;;;;;;;3.47;2.63;;;;;;;;;;5034233;28;20614;-52
2022/05/18 13:46:50;;;;;;;3.53;2.50;;;;;;;;;;5019820;28;20041;-52
2022/05/18 13:49:16;;;;;;;3.60;2.60;;;;;;;;;;5018640;28;20028;-50
2022/05/18 13:51:44;;;;;;;3.45;2.22;;;;;;;;;;5022343;28;20167;-51
2022/05/18 13:54:16;;;;;;;2.75;2.13;;;;;;;;;;5020679;28;20471;-51
2022/05/18 13:56:43;;;;;;;3.63;2.20;;;;;;;;;;5033556;28;20052;-52
2022/05/18 13:59:09;;;;;;;4.65;2.55;;;;;;;;;;5011844;28;20025;-52
2022/05/18 14:01:40;;;;;;;3.75;2.00;;;;;;;;;;5029864;28;20026;-51
2022/05/18 14:04:06;;;;;;;3.20;1.90;;;;;;;;;;5011943;28;20034;-52
2022/05/18 14:06:31;;;;;;;3.17;1.80;;;;;;;;;;5018557;28;20384;-51
2022/05/18 14:08:58;;;;;;;3.10;2.00;;;;;;;;;;5019629;28;20276;-52
2022/05/18 14:11:24;;;;;;;3.95;1.85;;;;;;;;;;5011167;28;20268;-51
2022/05/18 14:13:52;;;;;;;3.58;1.60;;;;;;;;;;5006930;28;20512;-51
2022/05/18 14:16:33;;;;;;;3.03;1.67;;;;;;;;;;5004203;28;20122;-51
2022/05/18 14:18:58;;;;;;;2.13;1.70;;;;;;;;;;5052973;28;20807;-52
2022/05/18 14:21:24;;;;;;;2.67;1.77;;;;;;;;;;5011864;28;20026;-51
2022/05/18 14:23:49;;;;;;;2.20;1.50;;;;;;;;;;5033357;28;20041;-52
2022/05/18 14:26:14;;;;;;;2.30;1.60;;;;;;;;;;5017943;28;20018;-51
2022/05/18 14:28:46;;;;;;;3.15;1.92;;;;;;;;;;5011166;28;20107;-52
2022/05/18 14:31:12;;;;;;;2.63;1.40;;;;;;;;;;5021414;28;20115;-52
2022/05/18 14:33:51;;;;;;;2.22;1.80;;;;;;;;;;5038235;28;20476;-52
2022/05/18 14:36:22;;;;;;;3.80;1.53;;;;;;;;;;5018643;28;20403;-52
2022/05/18 14:38:50;;;;;;;4.25;2.08;;;;;;;;;;5022354;28;20494;-52
2022/05/18 14:41:15;;;;;;;4.30;1.70;;;;;;;;;;5016957;28;20539;-52
2022/05/18 14:43:40;;;;;;;2.23;1.90;;;;;;;;;;5035205;28;20017;-52
2022/05/18 14:46:17;;;;;;;3.53;1.97;;;;;;;;;;5010992;28;20021;-51
2022/05/18 14:48:46;;;;;;;2.15;1.85;;;;;;;;;;5020002;28;20025;-52
2022/05/18 14:51:21;;;;;;;2.73;1.80;;;;;;;;;;5017809;28;20936;-52
2022/05/18 14:53:48;;;;;;;3.30;1.80;;;;;;;;;;5017798;28;20496;-52
2022/05/18 14:56:13;;;;;;;3.15;1.80;;;;;;;;;;5012480;28;20030;-52
2022/05/18 14:58:43;;;;;;;2.93;1.80;;;;;;;;;;5008294;28;20407;-51
2022/05/18 15:01:14;;;;;;;2.03;1.70;;;;;;;;;;5018273;28;20284;-52
2022/05/18 15:03:41;;;;;;;2.65;1.80;;;;;;;;;;5001958;28;20513;-52